Craigsville, Virginia
Current Conditions -  °F | °C
As of 8:35 AM on Wednesday 22 Oct 2014 (Local Time) from KW13 Reporting Station
Overcast Overcast  
Wind Chill: 46°   Ceiling: 2800
Heat Index: 49°   Visibility: 10mi
Dew Point: 41°   Wind: 6mph
Humidity: 75%   Direction: 330°NNW
Pressure: 29.99"   Gusts: NA
Location:  38.08°N, 79.38°W
Report Text: KW13 221235Z AUTO 33005KT 10SM OVC028 09/05 A2999 RMK AO1 T00930051
Loading
Personal Weather Stations






























Interactive Weather Map
Tropical Storm Tracking
New forecast layout! Learn more

10-Day Weather Forecast

Advertisements
Track Severe Weather on mobile